createdAt,value
2018-12-26T00:01:34.229Z,100351.91
2018-12-26T00:04:07.550Z,100360.61
2018-12-26T00:06:41.148Z,100362.28
2018-12-26T00:09:14.278Z,100363.93
2018-12-26T00:11:47.467Z,100368.63
2018-12-26T00:14:20.552Z,100362.61
2018-12-26T00:16:53.963Z,100361.95
2018-12-26T00:19:27.189Z,100361.61
2018-12-26T00:22:00.300Z,100364.17
2018-12-26T00:24:33.447Z,100364.28
2018-12-26T00:27:06.529Z,100370.03
2018-12-26T00:29:39.692Z,100376.64
2018-12-26T00:32:13.057Z,100380.41
2018-12-26T00:34:48.900Z,100383.91
2018-12-26T00:37:22.042Z,100396.28
2018-12-26T00:39:55.212Z,100394.45
2018-12-26T00:42:28.240Z,100392.55
2018-12-26T00:45:01.719Z,100395.06
2018-12-26T00:47:34.950Z,100399.53
2018-12-26T00:50:08.278Z,100412.59
2018-12-26T00:52:41.580Z,100412.92
2018-12-26T00:55:14.732Z,100410.77
2018-12-26T00:57:47.855Z,100415.06
2018-12-26T01:00:21.203Z,100429.63
2018-12-26T01:02:55.551Z,100422.84
2018-12-26T01:05:28.696Z,100437.50
2018-12-26T01:08:01.938Z,100433.20
2018-12-26T01:10:35.333Z,100435.50
2018-12-26T01:13:08.487Z,100444.13
2018-12-26T01:15:41.724Z,100447.13
2018-12-26T01:18:14.784Z,100452.19
2018-12-26T01:20:47.857Z,100453.66
2018-12-26T01:23:20.726Z,100463.98
2018-12-26T01:25:53.910Z,100455.44
2018-12-26T01:28:26.923Z,100459.14
2018-12-26T01:31:00.148Z,100457.89
2018-12-26T01:33:33.175Z,100464.20
2018-12-26T01:36:06.082Z,100460.28
2018-12-26T01:38:38.740Z,100465.96
2018-12-26T01:41:11.499Z,100457.86
2018-12-26T01:43:44.767Z,100462.44
2018-12-26T01:46:17.872Z,100458.43
2018-12-26T01:48:51.244Z,100466.28
2018-12-26T01:51:25.073Z,100460.58
2018-12-26T01:53:57.997Z,100455.81
2018-12-26T01:56:31.138Z,100460.21
2018-12-26T01:59:04.647Z,100457.55
2018-12-26T02:01:37.961Z,100458.59
2018-12-26T02:04:10.972Z,100454.14
2018-12-26T02:06:43.881Z,100456.30
2018-12-26T02:09:17.293Z,100452.83
2018-12-26T02:11:51.084Z,100449.09
2018-12-26T02:14:24.151Z,100462.30
2018-12-26T02:16:57.119Z,100452.81
2018-12-26T02:19:30.819Z,100456.06
2018-12-26T02:22:04.088Z,100451.05
2018-12-26T02:24:37.719Z,100457.35
2018-12-26T02:27:11.055Z,100452.78
2018-12-26T02:29:44.260Z,100452.78
2018-12-26T02:32:17.589Z,100453.86
2018-12-26T02:34:50.563Z,100453.58
2018-12-26T02:37:23.954Z,100449.39
2018-12-26T02:39:57.344Z,100445.45
2018-12-26T02:42:30.388Z,100440.63
2018-12-26T02:45:03.517Z,100438.25
2018-12-26T02:47:36.591Z,100438.25
2018-12-26T02:50:10.822Z,100436.98
2018-12-26T02:52:44.007Z,100452.16
2018-12-26T02:55:17.315Z,100433.77
2018-12-26T02:57:51.046Z,100433.77
2018-12-26T03:00:24.244Z,100425.52
2018-12-26T03:02:57.353Z,100431.34
2018-12-26T03:05:31.157Z,100428.47
2018-12-26T03:08:04.520Z,100413.79
2018-12-26T03:10:37.565Z,100412.94
2018-12-26T03:13:10.626Z,100400.73
2018-12-26T03:15:43.688Z,100400.73
2018-12-26T03:18:16.975Z,100406.95
2018-12-26T03:20:50.168Z,100398.67
2018-12-26T03:23:23.247Z,100403.27
2018-12-26T03:25:56.303Z,100379.63
2018-12-26T03:28:29.262Z,100398.12
2018-12-26T03:31:02.433Z,100395.86
2018-12-26T03:33:35.633Z,100394.36
2018-12-26T03:36:09.171Z,100394.36
2018-12-26T03:38:42.140Z,100388.11
2018-12-26T03:41:17.178Z,100373.83
2018-12-26T03:43:51.410Z,100361.72
2018-12-26T03:46:24.599Z,100360.13
2018-12-26T03:48:58.001Z,100360.13
2018-12-26T03:51:31.319Z,100350.55
2018-12-26T03:54:04.583Z,100346.67
2018-12-26T03:56:38.281Z,100338.39
2018-12-26T03:59:11.906Z,100343.09
2018-12-26T04:01:45.075Z,100333.59
2018-12-26T04:04:18.137Z,100336.80
2018-12-26T04:06:51.349Z,100336.80
2018-12-26T04:09:27.896Z,100329.83
2018-12-26T04:11:59.206Z,100329.83
2018-12-26T04:14:32.276Z,100332.62
2018-12-26T04:17:05.409Z,100332.62
2018-12-26T04:19:38.722Z,100335.01
2018-12-26T04:22:11.855Z,100342.10
2018-12-26T04:24:45.175Z,100343.30
2018-12-26T04:27:18.196Z,100338.02
2018-12-26T04:29:59.579Z,100330.30
2018-12-26T04:32:32.804Z,100331.48
2018-12-26T04:35:06.129Z,100329.97
2018-12-26T04:37:39.220Z,100322.80
2018-12-26T04:40:12.243Z,100316.70
2018-12-26T04:42:45.061Z,100313.09
2018-12-26T04:45:17.698Z,100310.27
2018-12-26T04:47:50.362Z,100317.61
2018-12-26T04:50:23.820Z,100315.55
2018-12-26T04:52:56.965Z,100321.17
2018-12-26T04:55:30.236Z,100327.61
2018-12-26T04:58:03.642Z,100322.39
2018-12-26T05:00:36.312Z,100318.77
2018-12-26T05:03:15.883Z,100326.20
2018-12-26T05:05:48.823Z,100322.57
2018-12-26T05:08:21.866Z,100335.93
2018-12-26T05:10:54.910Z,100324.73
2018-12-26T05:13:27.875Z,100326.16
2018-12-26T05:16:01.052Z,100318.83
2018-12-26T05:18:34.328Z,100336.59
2018-12-26T05:21:07.431Z,100330.05
2018-12-26T05:23:40.482Z,100325.73
2018-12-26T05:26:16.416Z,100325.73
2018-12-26T05:28:49.430Z,100319.05
2018-12-26T05:31:22.667Z,100313.75
2018-12-26T05:33:55.913Z,100319.09
2018-12-26T05:36:28.883Z,100315.73
2018-12-26T05:39:01.881Z,100315.73
2018-12-26T05:41:34.900Z,100336.08
2018-12-26T05:44:08.915Z,100336.08
2018-12-26T05:46:41.922Z,100344.48
2018-12-26T05:49:15.018Z,100344.48
2018-12-26T05:51:48.085Z,100338.92
2018-12-26T05:54:21.183Z,100338.92
2018-12-26T05:56:55.487Z,100337.27
2018-12-26T05:59:29.017Z,100345.92
2018-12-26T06:02:02.138Z,100345.92
2018-12-26T06:04:35.653Z,100341.83
2018-12-26T06:07:08.548Z,100349.42
2018-12-26T06:09:42.225Z,100349.42
2018-12-26T06:12:15.265Z,100337.70
2018-12-26T06:14:48.434Z,100336.91
2018-12-26T06:17:21.599Z,100342.77
2018-12-26T06:19:54.603Z,100342.77
2018-12-26T06:22:30.539Z,100342.55
2018-12-26T06:25:29.067Z,100333.84
2018-12-26T06:28:02.251Z,100333.84
2018-12-26T06:30:35.790Z,100345.63
2018-12-26T06:33:09.031Z,100345.63
2018-12-26T06:35:42.087Z,100353.94
2018-12-26T06:38:15.021Z,100348.38
2018-12-26T06:40:48.190Z,100348.38
2018-12-26T06:43:21.262Z,100342.11
2018-12-26T06:45:54.283Z,100342.11
2018-12-26T06:48:27.729Z,100348.14
2018-12-26T06:51:01.049Z,100339.63
2018-12-26T06:53:34.079Z,100342.95
2018-12-26T06:56:07.506Z,100342.95
2018-12-26T06:58:40.602Z,100358.52
2018-12-26T07:01:13.730Z,100358.52
2018-12-26T07:03:46.594Z,100346.86
2018-12-26T07:06:20.012Z,100343.35
2018-12-26T07:08:53.130Z,100350.35
2018-12-26T07:11:26.770Z,100350.35
2018-12-26T07:13:59.763Z,100361.48
2018-12-26T07:16:32.686Z,100361.48
2018-12-26T07:19:08.705Z,100366.81
2018-12-26T07:21:42.044Z,100358.45
2018-12-26T07:24:15.193Z,100357.08
2018-12-26T07:26:48.018Z,100354.84
2018-12-26T07:29:21.014Z,100357.62
2018-12-26T07:31:53.990Z,100361.75
2018-12-26T07:34:27.145Z,100359.71
2018-12-26T07:37:00.377Z,100354.05
2018-12-26T07:39:33.602Z,100354.05
2018-12-26T07:42:06.683Z,100348.59
2018-12-26T07:44:39.761Z,100348.59
2018-12-26T07:47:12.855Z,100366.25
2018-12-26T07:49:45.909Z,100366.47
2018-12-26T07:52:18.984Z,100369.63
2018-12-26T07:54:52.102Z,100340.80
2018-12-26T07:57:25.190Z,100340.80
2018-12-26T07:59:58.355Z,100342.89
2018-12-26T08:02:31.507Z,100347.61
2018-12-26T08:05:04.556Z,100357.56
2018-12-26T08:07:37.931Z,100362.33
2018-12-26T08:10:11.156Z,100366.72
2018-12-26T08:12:44.293Z,100378.84
2018-12-26T08:15:17.864Z,100378.84
2018-12-26T08:17:50.903Z,100371.55
2018-12-26T08:20:24.159Z,100370.65
2018-12-26T08:22:57.088Z,100370.65
2018-12-26T08:25:30.112Z,100366.47
2018-12-26T08:28:03.124Z,100366.47
2018-12-26T08:30:36.863Z,100363.19
2018-12-26T08:33:10.058Z,100363.19
2018-12-26T08:35:43.115Z,100365.55
2018-12-26T08:38:16.212Z,100360.94
2018-12-26T08:40:49.380Z,100356.17
2018-12-26T08:43:22.418Z,100356.17
2018-12-26T08:45:56.024Z,100368.63
2018-12-26T08:48:28.958Z,100379.92
2018-12-26T08:51:01.887Z,100379.92
2018-12-26T08:53:34.906Z,100377.42
2018-12-26T08:56:07.918Z,100370.67
2018-12-26T08:58:40.961Z,100380.13
2018-12-26T09:01:14.197Z,100393.06
2018-12-26T09:03:47.181Z,100393.06
2018-12-26T09:06:20.119Z,100377.30
2018-12-26T09:08:53.751Z,100378.99
2018-12-26T09:11:27.222Z,100381.83
2018-12-26T09:14:00.386Z,100369.27
2018-12-26T09:16:33.341Z,100383.50
2018-12-26T09:19:06.375Z,100400.63
2018-12-26T09:21:39.449Z,100387.06
2018-12-26T09:24:12.526Z,100393.14
2018-12-26T09:26:45.578Z,100393.14
2018-12-26T09:29:18.593Z,100388.75
2018-12-26T09:31:51.419Z,100397.55
2018-12-26T09:34:25.681Z,100388.28
2018-12-26T09:36:58.350Z,100388.46
2018-12-26T09:39:33.742Z,100386.39
2018-12-26T09:42:07.190Z,100393.78
2018-12-26T09:44:40.375Z,100393.41
2018-12-26T09:47:13.436Z,100398.38
2018-12-26T09:49:46.578Z,100397.44
2018-12-26T09:52:19.948Z,100397.81
2018-12-26T09:54:53.257Z,100402.86
2018-12-26T09:57:26.570Z,100402.86
2018-12-26T09:59:59.585Z,100403.52
2018-12-26T10:02:32.843Z,100407.63
2018-12-26T10:05:06.504Z,100416.41
2018-12-26T10:07:39.251Z,100411.64
2018-12-26T10:10:12.717Z,100413.30
2018-12-26T10:12:46.854Z,100411.09
2018-12-26T10:15:19.642Z,100406.11
2018-12-26T10:17:52.603Z,100397.11
2018-12-26T10:20:25.630Z,100393.56
2018-12-26T10:22:58.638Z,100393.66
2018-12-26T10:25:31.804Z,100402.20
2018-12-26T10:28:05.058Z,100406.58
2018-12-26T10:30:37.998Z,100405.84
2018-12-26T10:33:11.156Z,100406.78
2018-12-26T10:35:44.350Z,100399.95
2018-12-26T10:38:17.325Z,100415.55
2018-12-26T10:40:50.298Z,100410.60
2018-12-26T10:43:23.446Z,100414.33
2018-12-26T10:45:56.553Z,100420.61
2018-12-26T10:48:29.421Z,100417.63
2018-12-26T10:51:02.404Z,100417.33
2018-12-26T10:53:35.373Z,100421.36
2018-12-26T10:56:08.346Z,100411.62
2018-12-26T10:58:41.631Z,100411.43
2018-12-26T11:01:14.624Z,100411.34
2018-12-26T11:03:48.125Z,100405.31
2018-12-26T11:06:21.212Z,100405.31
2018-12-26T11:08:54.284Z,100415.08
2018-12-26T11:11:27.542Z,100415.08
2018-12-26T11:14:01.302Z,100411.69
2018-12-26T11:16:34.899Z,100411.69
2018-12-26T11:19:07.888Z,100410.77
2018-12-26T11:21:42.120Z,100400.67
2018-12-26T11:24:15.208Z,100405.53
2018-12-26T11:26:48.366Z,100394.39
2018-12-26T11:29:21.576Z,100400.08
2018-12-26T11:31:55.072Z,100404.45
2018-12-26T11:34:29.233Z,100403.63
2018-12-26T11:37:02.526Z,100403.63
2018-12-26T11:39:35.666Z,100404.25
2018-12-26T11:42:08.748Z,100404.25
2018-12-26T11:44:42.019Z,100407.33
2018-12-26T11:47:15.120Z,100401.03
2018-12-26T11:49:48.574Z,100401.03
2018-12-26T11:52:21.736Z,100406.05
2018-12-26T11:54:54.784Z,100403.51
2018-12-26T11:57:28.106Z,100407.84
2018-12-26T12:00:01.478Z,100407.84
2018-12-26T12:02:34.551Z,100410.57
2018-12-26T12:05:08.301Z,100410.57
2018-12-26T12:07:42.603Z,100403.44
2018-12-26T12:10:16.111Z,100412.39
2018-12-26T12:12:49.272Z,100412.78
2018-12-26T12:15:22.321Z,100421.02
2018-12-26T12:18:15.820Z,100426.51
2018-12-26T12:20:48.934Z,100413.89
2018-12-26T12:23:22.245Z,100414.59
2018-12-26T12:25:55.593Z,100407.33
2018-12-26T12:28:31.604Z,100407.33
2018-12-26T12:31:04.926Z,100406.91
2018-12-26T12:33:38.057Z,100412.86
2018-12-26T12:36:12.958Z,100409.17
2018-12-26T12:38:45.441Z,100417.03
2018-12-26T12:41:18.613Z,100417.03
2018-12-26T12:43:51.785Z,100420.97
2018-12-26T12:46:24.742Z,100422.77
2018-12-26T12:48:57.790Z,100422.77
2018-12-26T12:51:31.003Z,100423.94
2018-12-26T12:54:04.043Z,100412.12
2018-12-26T12:56:36.993Z,100415.02
2018-12-26T12:59:10.155Z,100413.75
2018-12-26T13:01:43.208Z,100413.75
2018-12-26T13:04:16.251Z,100420.55
2018-12-26T13:06:49.083Z,100420.36
2018-12-26T13:09:21.901Z,100421.74
2018-12-26T13:11:55.115Z,100416.89
2018-12-26T13:14:28.845Z,100419.97
2018-12-26T13:17:01.731Z,100417.74
2018-12-26T13:19:34.901Z,100420.58
2018-12-26T13:22:11.568Z,100411.13
2018-12-26T13:24:44.756Z,100415.97
2018-12-26T13:27:17.875Z,100413.94
2018-12-26T13:29:53.848Z,100426.47
2018-12-26T13:32:25.377Z,100421.42
2018-12-26T13:34:58.511Z,100424.62
2018-12-26T13:37:33.036Z,100429.16
2018-12-26T13:40:06.275Z,100422.27
2018-12-26T13:42:39.645Z,100424.59
2018-12-26T13:45:12.652Z,100430.91
2018-12-26T13:47:45.582Z,100432.03
2018-12-26T13:50:18.776Z,100430.57
2018-12-26T13:52:51.896Z,100425.11
2018-12-26T13:55:24.995Z,100431.98
2018-12-26T13:57:58.074Z,100426.30
2018-12-26T14:00:31.087Z,100422.50
2018-12-26T14:03:04.495Z,100419.15
2018-12-26T14:05:37.895Z,100425.51
2018-12-26T14:08:10.994Z,100423.86
2018-12-26T14:10:44.061Z,100430.27
2018-12-26T14:13:17.140Z,100429.69
2018-12-26T14:15:50.248Z,100429.25
2018-12-26T14:18:23.337Z,100428.52
2018-12-26T14:20:56.216Z,100432.37
2018-12-26T14:23:28.929Z,100427.30
2018-12-26T14:26:02.112Z,100422.51
2018-12-26T14:28:36.125Z,100432.38
2018-12-26T14:31:09.298Z,100431.59
2018-12-26T14:33:42.253Z,100429.84
2018-12-26T14:36:15.269Z,100431.20
2018-12-26T14:38:48.300Z,100426.45
2018-12-26T14:41:21.395Z,100432.11
2018-12-26T14:43:55.109Z,100440.47
2018-12-26T14:46:28.180Z,100437.99
2018-12-26T14:49:04.495Z,100437.92
2018-12-26T14:51:37.841Z,100432.52
2018-12-26T14:54:11.004Z,100433.23
2018-12-26T14:56:44.097Z,100436.56
2018-12-26T14:59:17.024Z,100427.88
2018-12-26T15:01:50.269Z,100432.44
2018-12-26T15:04:23.692Z,100439.48
2018-12-26T15:06:57.247Z,100433.48
2018-12-26T15:09:30.586Z,100437.34
2018-12-26T15:12:03.964Z,100432.27
2018-12-26T15:14:37.776Z,100427.35
2018-12-26T15:17:11.032Z,100428.33
2018-12-26T15:19:44.191Z,100428.81
2018-12-26T15:22:17.261Z,100431.45
2018-12-26T15:24:50.043Z,100433.05
2018-12-26T15:27:22.908Z,100437.14
2018-12-26T15:29:55.852Z,100432.06
2018-12-26T15:32:29.101Z,100427.61
2018-12-26T15:35:03.564Z,100439.92
2018-12-26T15:37:36.529Z,100438.23
2018-12-26T15:40:11.882Z,100436.28
2018-12-26T15:42:45.735Z,100438.66
2018-12-26T15:45:18.707Z,100436.61
2018-12-26T15:47:51.888Z,100442.28
2018-12-26T15:50:24.971Z,100432.52
2018-12-26T15:52:58.134Z,100439.20
2018-12-26T15:55:31.105Z,100439.39
2018-12-26T15:58:07.813Z,100442.98
2018-12-26T16:00:40.859Z,100432.19
2018-12-26T16:03:13.942Z,100433.48
2018-12-26T16:05:47.218Z,100440.66
2018-12-26T16:08:20.397Z,100440.06
2018-12-26T16:10:53.615Z,100439.39
2018-12-26T16:13:26.730Z,100447.86
2018-12-26T16:15:59.829Z,100447.86
2018-12-26T16:18:32.938Z,100443.30
2018-12-26T16:21:06.012Z,100444.81
2018-12-26T16:23:39.289Z,100454.34
2018-12-26T16:26:12.309Z,100440.03
2018-12-26T16:28:45.591Z,100435.88
2018-12-26T16:31:19.246Z,100443.53
2018-12-26T16:33:52.441Z,100434.04
2018-12-26T16:36:25.529Z,100435.72
2018-12-26T16:38:58.713Z,100450.44
2018-12-26T16:41:32.380Z,100451.13
2018-12-26T16:44:05.925Z,100446.50
2018-12-26T16:46:39.412Z,100444.70
2018-12-26T16:49:12.750Z,100449.45
2018-12-26T16:51:49.182Z,100454.95
2018-12-26T16:54:22.878Z,100460.30
2018-12-26T16:56:59.259Z,100460.30
2018-12-26T16:59:32.548Z,100460.04
2018-12-26T17:02:05.776Z,100461.17
2018-12-26T17:04:39.047Z,100468.40
2018-12-26T17:07:12.107Z,100468.88
2018-12-26T17:09:45.529Z,100476.52
2018-12-26T17:12:18.651Z,100481.64
2018-12-26T17:14:54.975Z,100481.64
2018-12-26T17:17:28.109Z,100486.86
2018-12-26T17:20:01.226Z,100488.23
2018-12-26T17:22:34.455Z,100495.72
2018-12-26T17:25:07.602Z,100498.88
2018-12-26T17:27:41.005Z,100508.01
2018-12-26T17:30:14.723Z,100500.02
2018-12-26T17:32:48.188Z,100498.85
2018-12-26T17:35:21.214Z,100496.95
2018-12-26T17:37:54.236Z,100496.95
2018-12-26T17:40:27.383Z,100503.67
2018-12-26T17:43:00.888Z,100507.81
2018-12-26T17:45:34.085Z,100510.05
2018-12-26T17:48:07.116Z,100507.73
2018-12-26T17:50:50.759Z,100512.81
2018-12-26T17:53:40.625Z,100512.89
2018-12-26T17:56:16.386Z,100511.61
2018-12-26T17:59:08.062Z,100510.00
2018-12-26T18:01:55.584Z,100513.39
2018-12-26T18:04:29.331Z,100504.89
2018-12-26T18:07:02.471Z,100504.89
2018-12-26T18:09:35.568Z,100508.86
2018-12-26T18:12:12.094Z,100505.80
2018-12-26T18:14:44.533Z,100504.42
2018-12-26T18:17:17.633Z,100511.70
2018-12-26T18:20:32.889Z,100513.33
2018-12-26T18:23:06.100Z,100513.98
2018-12-26T18:29:20.891Z,100510.55
2018-12-26T18:39:17.104Z,100515.91
2018-12-26T18:41:50.119Z,100522.99
2018-12-26T18:44:23.634Z,100523.89
2018-12-26T18:46:56.673Z,100521.82
2018-12-26T18:49:30.109Z,100523.75
2018-12-26T18:52:04.045Z,100519.34
2018-12-26T18:54:38.185Z,100514.38
2018-12-26T18:57:12.035Z,100515.41
2018-12-26T18:59:49.758Z,100515.73
2018-12-26T19:02:23.666Z,100520.52
2018-12-26T19:04:56.912Z,100509.01
2018-12-26T19:07:32.910Z,100503.34
2018-12-26T19:10:06.889Z,100503.34
2018-12-26T19:12:45.779Z,100509.31
2018-12-26T19:15:34.215Z,100505.32
2018-12-26T19:18:11.547Z,100503.16
2018-12-26T19:20:51.511Z,100504.11
2018-12-26T19:23:24.686Z,100502.81
2018-12-26T19:25:58.052Z,100498.81
2018-12-26T19:28:31.161Z,100483.07
2018-12-26T19:31:04.128Z,100483.07
2018-12-26T19:33:37.408Z,100489.81
2018-12-26T19:36:10.548Z,100488.61
2018-12-26T19:38:43.657Z,100487.78
2018-12-26T19:41:17.439Z,100496.20
2018-12-26T19:43:51.132Z,100495.75
2018-12-26T19:46:24.246Z,100482.78
2018-12-26T19:49:02.557Z,100482.78
2018-12-26T19:54:30.352Z,100486.22
2018-12-26T19:57:05.119Z,100491.30
2018-12-26T19:59:38.113Z,100482.70
2018-12-26T20:02:12.548Z,100484.67
2018-12-26T20:04:45.877Z,100483.77
2018-12-26T20:07:19.583Z,100485.77
2018-12-26T20:09:53.632Z,100477.38
2018-12-26T20:12:27.719Z,100481.17
2018-12-26T20:15:05.591Z,100474.66
2018-12-26T20:17:40.443Z,100474.23
2018-12-26T20:20:14.510Z,100475.14
2018-12-26T20:22:55.049Z,100475.27
2018-12-26T20:25:32.097Z,100468.39
2018-12-26T20:28:05.717Z,100466.40
2018-12-26T20:30:39.466Z,100472.45
2018-12-26T20:33:15.605Z,100479.02
2018-12-26T20:35:49.544Z,100472.81
2018-12-26T20:38:23.212Z,100475.17
2018-12-26T20:40:57.044Z,100475.70
2018-12-26T20:43:30.435Z,100480.52
2018-12-26T20:48:54.879Z,100473.44
2018-12-26T20:51:27.911Z,100470.02
2018-12-26T20:54:01.185Z,100469.52
2018-12-26T20:56:35.103Z,100469.83
2018-12-26T20:59:08.477Z,100465.09
2018-12-26T21:01:42.203Z,100471.62
2018-12-26T21:04:16.607Z,100468.48
2018-12-26T21:06:51.237Z,100465.66
2018-12-26T21:09:26.098Z,100457.80
2018-12-26T21:12:02.162Z,100456.50
2018-12-26T21:14:35.167Z,100459.83
2018-12-26T21:17:08.657Z,100460.15
2018-12-26T21:19:42.388Z,100464.95
2018-12-26T21:22:16.031Z,100470.35
2018-12-26T21:24:49.623Z,100460.45
2018-12-26T21:27:22.948Z,100463.38
2018-12-26T21:29:55.968Z,100469.44
2018-12-26T21:32:29.140Z,100468.58
2018-12-26T21:35:04.792Z,100460.56
2018-12-26T21:37:38.702Z,100470.36
2018-12-26T21:40:12.783Z,100469.88
2018-12-26T21:42:46.656Z,100469.68
2018-12-26T21:45:19.877Z,100468.84
2018-12-26T21:47:53.951Z,100474.17
2018-12-26T21:50:34.668Z,100480.55
2018-12-26T21:53:08.354Z,100474.50
2018-12-26T21:55:44.752Z,100479.72
2018-12-26T21:58:18.104Z,100480.63
2018-12-26T22:00:53.113Z,100483.73
2018-12-26T22:03:26.447Z,100483.23
2018-12-26T22:06:00.247Z,100477.64
2018-12-26T22:08:33.210Z,100479.34
2018-12-26T22:11:07.018Z,100481.84
2018-12-26T22:13:42.735Z,100488.37
2018-12-26T22:16:16.750Z,100488.98
2018-12-26T22:18:50.740Z,100494.73
2018-12-26T22:21:25.559Z,100495.09
2018-12-26T22:23:58.951Z,100491.58
2018-12-26T22:26:32.016Z,100491.33
2018-12-26T22:29:05.876Z,100491.36
2018-12-26T22:31:40.642Z,100500.17
2018-12-26T22:34:14.516Z,100503.48
2018-12-26T22:36:48.486Z,100499.58
2018-12-26T22:39:21.909Z,100502.44
2018-12-26T22:41:55.084Z,100508.64
2018-12-26T22:44:28.261Z,100508.64
2018-12-26T22:47:01.397Z,100509.24
2018-12-26T22:49:35.121Z,100516.28
2018-12-26T22:52:08.072Z,100516.59
2018-12-26T22:54:41.053Z,100510.34
2018-12-26T22:57:15.092Z,100514.67
2018-12-26T22:59:48.978Z,100515.07
2018-12-26T23:02:22.874Z,100516.08
2018-12-26T23:04:55.770Z,100513.64
2018-12-26T23:07:28.911Z,100511.87
2018-12-26T23:10:01.957Z,100505.23
2018-12-26T23:12:36.696Z,100493.78
2018-12-26T23:15:10.078Z,100493.06
2018-12-26T23:17:44.006Z,100500.08
2018-12-26T23:20:18.150Z,100508.34
2018-12-26T23:22:52.197Z,100507.14
2018-12-26T23:25:26.216Z,100509.27
2018-12-26T23:28:00.165Z,100519.34
2018-12-26T23:30:34.110Z,100526.94
2018-12-26T23:33:10.252Z,100534.12
2018-12-26T23:35:45.676Z,100515.42
2018-12-26T23:38:20.350Z,100527.02
2018-12-26T23:40:56.439Z,100525.33
2018-12-26T23:43:30.335Z,100525.66
2018-12-26T23:46:04.069Z,100527.36
2018-12-26T23:48:37.985Z,100526.44
2018-12-26T23:51:12.098Z,100526.08
2018-12-26T23:53:46.384Z,100525.23
2018-12-26T23:56:19.334Z,100518.18
2018-12-26T23:58:53.355Z,100525.42
